Lord Nelson — GHJV — position and weather

sailwx.info

Track history (hours):
 
Tides and Currents Weather Stations Pressure Air Temp Water Temp Dewpoint Dewpoint Depression Visibility Wind Speed Wind Dir Waves Ship Positions

Lord Nelson (United Kingdom)

Ship's website: http://www.jst.org.uk/

Last reported at 2017-Mar-24 13:25 UTC. Time now 2017-Mar-26 15:00 UTC.
Position N 50°53' W 001°24'.

Length 54.7 m; beam 9 m; draft 4.1 m.

Type: Sailing vessel. MMSI: 232003690.

Date/timePositionNaut miles runAvg speedWind from/ knotsBaromVisibWave heightAir tempDewpointWater temp
2017-Mar-24 13:25N 50°53' W 001°24'0 0.0
2017-Mar-23 22:30N 50°53' W 001°24'0 0.0
2017-Mar-23 20:06N 50°53' W 001°24'0 0.0
2017-Mar-23 16:18N 50°53' W 001°24'0 0.0
2017-Mar-23 12:15N 50°53' W 001°24'0 0.0
2017-Mar-23 11:14N 50°53' W 001°24'1 1.5
2017-Mar-23 10:33N 50°53' W 001°23'5 5.0
2017-Mar-23 09:33N 50°49' W 001°18'4 4.0
2017-Mar-23 08:34N 50°46' W 001°21'1 1.0
2017-Mar-23 07:29N 50°45' W 001°22'0 0.0
2017-Mar-23 06:32N 50°45' W 001°22'0 0.1
2017-Mar-23 05:32N 50°45' W 001°22'0 0.0
2017-Mar-23 04:32N 50°45' W 001°22'0 0.0
2017-Mar-23 03:29N 50°45' W 001°22'0 0.0
2017-Mar-23 02:32N 50°45' W 001°22'0 0.0
2017-Mar-23 01:29N 50°45' W 001°22'0 0.1
2017-Mar-23 00:32N 50°45' W 001°22'0 0.0
2017-Mar-22 23:29N 50°45' W 001°22'0 0.0
2017-Mar-22 22:17N 50°45' W 001°22'0 0.0
2017-Mar-22 21:29N 50°45' W 001°22'0 0.0
2017-Mar-22 20:17N 50°45' W 001°22'0 0.0
2017-Mar-22 19:29N 50°45' W 001°22'0 0.0
2017-Mar-22 18:29N 50°45' W 001°22'0 0.0
2017-Mar-22 17:25N 50°45' W 001°22'0 0.0
2017-Mar-22 16:25N 50°45' W 001°22'0 0.0
2017-Mar-22 15:13N 50°45' W 001°22'0 0.0
2017-Mar-22 14:19N 50°45' W 001°22'0 0.0
2017-Mar-22 13:33N 50°45' W 001°22'0 0.0
2017-Mar-22 12:33N 50°45' W 001°22'5 5.1
2017-Mar-22 11:33N 50°43' W 001°30'8 7.7
2017-Mar-22 10:34N 50°38' W 001°39'5 4.7
2017-Mar-22 09:33N 50°36' W 001°45'3 2.8
2017-Mar-22 08:33N 50°34' W 001°49'4 3.8
2017-Mar-22 07:33N 50°31' W 001°53'4 4.2
2017-Mar-22 06:33N 50°29' W 001°59'1 0.6
2017-Mar-22 04:32N 50°28' W 001°58'4 4.5
2017-Mar-22 03:33N 50°27' W 001°51'41 5.7
2017-Mar-21 20:20N 50°10' W 002°50'5 6.1
2017-Mar-21 19:31N 50°09' W 002°57'6 5.8
2017-Mar-21 18:33N 50°08' W 003°06'6 5.9
2017-Mar-21 17:33N 50°10' W 003°14'6 6.4
2017-Mar-21 16:33N 50°13' W 003°23'3 3.0
2017-Mar-21 15:33N 50°11' W 003°27'9 9.2
2017-Mar-21 14:33N 50°11' W 003°42'10 8.4
2017-Mar-21 13:26N 50°11' W 003°57'7 8.1
2017-Mar-21 12:33N 50°11' W 004°08'10 8.3
2017-Mar-21 11:19N 50°14' W 004°23'7 8.1
2017-Mar-21 10:28N 50°17' W 004°33'5 0.2
2017-Mar-20 10:09N 50°20' W 004°38'4 6.5
2017-Mar-20 09:33N 50°17' W 004°40'8 8.1
2017-Mar-20 08:33N 50°09' W 004°46'8 7.6
2017-Mar-20 07:33N 50°03' W 004°52'8 8.1
2017-Mar-20 06:33N 49°56' W 004°59'54 6.7
2017-Mar-19 22:33N 49°16' W 005°55'23 7.6
2017-Mar-19 19:33N 49°16' W 006°30'7 7.5
2017-Mar-19 18:34N 49°16' W 006°42'4 6.9
2017-Mar-19 18:00N 49°12' W 006°42'817.4 230 / 211014.0 0.5 11.4 9.811.0
2017-Mar-19 17:33N 49°15' W 006°52'7 6.8
2017-Mar-19 16:33N 49°15' W 007°03'7 4.3
2017-Mar-19 15:00N 49°12' W 007°12'34 7.1 230 / 241015.3 5.4 12.0 9.011.0
2017-Mar-19 10:15N 49°10' W 008°03'7 5.7
2017-Mar-19 09:00N 49°06' W 008°12'16 7.9 220 / 241016.3 0.5 12.0 9.011.0
2017-Mar-19 07:00N 49°06' W 008°36'77 5.9 250 / 251017.3 5.4 11.4 9.611.0
2017-Mar-18 18:00N 48°36' W 010°24'23 7.7 250 / 121021.8 5.4 12.210.511.8
2017-Mar-18 15:00N 48°24' W 010°54'50 6.3 270 / 181023.0 5.4 12.011.012.0
2017-Mar-18 07:00N 48°00' W 012°00'40 8.1 270 / 191024.910.8 11.5 8.711.7
2017-Mar-18 02:00N 47°42' W 012°54'72 8.9 270 / 181026.4 5.4 12.0 7.9
2017-Mar-17 18:00N 47°12' W 014°30'21 7.1 280 / 161028.8 5.4 11.5 7.412.0
2017-Mar-17 15:00N 47°06' W 015°00'58 7.3 290 / 151030.210.8 11.7 5.912.5
2017-Mar-17 07:00N 46°42' W 016°18'4 2.1 330 / 101030.9 5.4 10.3 2.610.4
2017-Mar-17 05:00N 46°42' W 016°24'37 3.7 320 / 101032.0 5.4 10.2 2.5
2017-Mar-16 19:00N 46°48' W 017°18'12 6.2 360 / 201031.1 5.4 10.9 4.2
2017-Mar-16 17:00N 46°48' W 017°36'87 7.9 360 / 251030.6 5.4 11.1 3.9
2017-Mar-16 06:00N 46°42' W 019°42'86 7.1 330 / 271028.9 5.4 10.8 5.1
2017-Mar-15 18:00N 46°00' W 021°30'18 4.4 320 / 181026.3 5.4 12.0 8.413.0
2017-Mar-15 14:00N 45°54' W 021°54'41 6.9 190 / 191026.4 5.4 14.010.213.5
2017-Mar-15 08:00N 45°30' W 022°42'4 4.2 200 / 261027.5 5.4 12.5 9.1
2017-Mar-15 07:00N 45°30' W 022°48'90 6.4 200 / 211027.7 5.4 12.8 8.812.9
2017-Mar-14 17:00N 44°42' W 024°36'   210 / 211033.0 5.4 15.013.614.2
Track history (hours):
 
Tides and Currents Weather Stations Pressure Air Temp Water Temp Dewpoint Dewpoint Depression Visibility Wind Speed Wind Dir Waves Ship Positions

Lord Nelson (United Kingdom)

Ship's website: http://www.jst.org.uk/

Last reported at 2017-Mar-24 13:25 UTC. Time now 2017-Mar-26 15:00 UTC.
Position N 50°53' W 001°24'.

Length 54.7 m; beam 9 m; draft 4.1 m.

Type: Sailing vessel. MMSI: 232003690.

Date/timePositionNaut miles runAvg speedWind from/ knotsBaromVisibWave heightAir tempDewpointWater temp
2017-Mar-24 13:25N 50°53' W 001°24'0 0.0
2017-Mar-23 22:30N 50°53' W 001°24'0 0.0
2017-Mar-23 20:06N 50°53' W 001°24'0 0.0
2017-Mar-23 16:18N 50°53' W 001°24'0 0.0
2017-Mar-23 12:15N 50°53' W 001°24'0 0.0
2017-Mar-23 11:14N 50°53' W 001°24'1 1.5
2017-Mar-23 10:33N 50°53' W 001°23'5 5.0
2017-Mar-23 09:33N 50°49' W 001°18'4 4.0
2017-Mar-23 08:34N 50°46' W 001°21'1 1.0
2017-Mar-23 07:29N 50°45' W 001°22'0 0.0
2017-Mar-23 06:32N 50°45' W 001°22'0 0.1
2017-Mar-23 05:32N 50°45' W 001°22'0 0.0
2017-Mar-23 04:32N 50°45' W 001°22'0 0.0
2017-Mar-23 03:29N 50°45' W 001°22'0 0.0
2017-Mar-23 02:32N 50°45' W 001°22'0 0.0
2017-Mar-23 01:29N 50°45' W 001°22'0 0.1
2017-Mar-23 00:32N 50°45' W 001°22'0 0.0
2017-Mar-22 23:29N 50°45' W 001°22'0 0.0
2017-Mar-22 22:17N 50°45' W 001°22'0 0.0
2017-Mar-22 21:29N 50°45' W 001°22'0 0.0
2017-Mar-22 20:17N 50°45' W 001°22'0 0.0
2017-Mar-22 19:29N 50°45' W 001°22'0 0.0
2017-Mar-22 18:29N 50°45' W 001°22'0 0.0
2017-Mar-22 17:25N 50°45' W 001°22'0 0.0
2017-Mar-22 16:25N 50°45' W 001°22'0 0.0
2017-Mar-22 15:13N 50°45' W 001°22'0 0.0
2017-Mar-22 14:19N 50°45' W 001°22'0 0.0
2017-Mar-22 13:33N 50°45' W 001°22'0 0.0
2017-Mar-22 12:33N 50°45' W 001°22'5 5.1
2017-Mar-22 11:33N 50°43' W 001°30'8 7.7
2017-Mar-22 10:34N 50°38' W 001°39'5 4.7
2017-Mar-22 09:33N 50°36' W 001°45'3 2.8
2017-Mar-22 08:33N 50°34' W 001°49'4 3.8
2017-Mar-22 07:33N 50°31' W 001°53'4 4.2
2017-Mar-22 06:33N 50°29' W 001°59'1 0.6
2017-Mar-22 04:32N 50°28' W 001°58'4 4.5
2017-Mar-22 03:33N 50°27' W 001°51'41 5.7
2017-Mar-21 20:20N 50°10' W 002°50'5 6.1
2017-Mar-21 19:31N 50°09' W 002°57'6 5.8
2017-Mar-21 18:33N 50°08' W 003°06'6 5.9
2017-Mar-21 17:33N 50°10' W 003°14'6 6.4
2017-Mar-21 16:33N 50°13' W 003°23'3 3.0
2017-Mar-21 15:33N 50°11' W 003°27'9 9.2
2017-Mar-21 14:33N 50°11' W 003°42'10 8.4
2017-Mar-21 13:26N 50°11' W 003°57'7 8.1
2017-Mar-21 12:33N 50°11' W 004°08'10 8.3
2017-Mar-21 11:19N 50°14' W 004°23'7 8.1
2017-Mar-21 10:28N 50°17' W 004°33'5 0.2
2017-Mar-20 10:09N 50°20' W 004°38'4 6.5
2017-Mar-20 09:33N 50°17' W 004°40'8 8.1
2017-Mar-20 08:33N 50°09' W 004°46'8 7.6
2017-Mar-20 07:33N 50°03' W 004°52'8 8.1
2017-Mar-20 06:33N 49°56' W 004°59'54 6.7
2017-Mar-19 22:33N 49°16' W 005°55'23 7.6
2017-Mar-19 19:33N 49°16' W 006°30'7 7.5
2017-Mar-19 18:34N 49°16' W 006°42'4 6.9
2017-Mar-19 18:00N 49°12' W 006°42'817.4 230 / 211014.0 0.5 11.4 9.811.0
2017-Mar-19 17:33N 49°15' W 006°52'7 6.8
2017-Mar-19 16:33N 49°15' W 007°03'7 4.3
2017-Mar-19 15:00N 49°12' W 007°12'34 7.1 230 / 241015.3 5.4 12.0 9.011.0
2017-Mar-19 10:15N 49°10' W 008°03'7 5.7
2017-Mar-19 09:00N 49°06' W 008°12'16 7.9 220 / 241016.3 0.5 12.0 9.011.0
2017-Mar-19 07:00N 49°06' W 008°36'77 5.9 250 / 251017.3 5.4 11.4 9.611.0
2017-Mar-18 18:00N 48°36' W 010°24'23 7.7 250 / 121021.8 5.4 12.210.511.8
2017-Mar-18 15:00N 48°24' W 010°54'50 6.3 270 / 181023.0 5.4 12.011.012.0
2017-Mar-18 07:00N 48°00' W 012°00'40 8.1 270 / 191024.910.8 11.5 8.711.7
2017-Mar-18 02:00N 47°42' W 012°54'72 8.9 270 / 181026.4 5.4 12.0 7.9
2017-Mar-17 18:00N 47°12' W 014°30'21 7.1 280 / 161028.8 5.4 11.5 7.412.0
2017-Mar-17 15:00N 47°06' W 015°00'58 7.3 290 / 151030.210.8 11.7 5.912.5
2017-Mar-17 07:00N 46°42' W 016°18'4 2.1 330 / 101030.9 5.4 10.3 2.610.4
2017-Mar-17 05:00N 46°42' W 016°24'37 3.7 320 / 101032.0 5.4 10.2 2.5
2017-Mar-16 19:00N 46°48' W 017°18'12 6.2 360 / 201031.1 5.4 10.9 4.2
2017-Mar-16 17:00N 46°48' W 017°36'87 7.9 360 / 251030.6 5.4 11.1 3.9
2017-Mar-16 06:00N 46°42' W 019°42'86 7.1 330 / 271028.9 5.4 10.8 5.1
2017-Mar-15 18:00N 46°00' W 021°30'18 4.4 320 / 181026.3 5.4 12.0 8.413.0
2017-Mar-15 14:00N 45°54' W 021°54'41 6.9 190 / 191026.4 5.4 14.010.213.5
2017-Mar-15 08:00N 45°30' W 022°42'4 4.2 200 / 261027.5 5.4 12.5 9.1
2017-Mar-15 07:00N 45°30' W 022°48'90 6.4 200 / 211027.7 5.4 12.8 8.812.9
2017-Mar-14 17:00N 44°42' W 024°36'   210 / 211033.0 5.4 15.013.614.2

Dump ship's entire track history